Time;durP1;ratioP1;P1;durP2;ratioP2;P2;SDS_P1;SDS_P2;PMS_P1;PMS_P2;Temp;Humidity;BMP_temperature;BMP_pressure;BME280_temperature;BME280_humidity;BME280_pressure;Samples;Min_cycle;Max_cycle;Signal;HPM_P1;HPM_P2
2023/05/02 00:05:05;;;;;;;5.75;3.75;;;12.60;99.90;;;;;;12488011;28;20078;-37
2023/05/02 00:11:08;;;;;;;8.88;3.78;;;12.50;99.90;;;;;;12497007;28;20057;-36
2023/05/02 00:17:19;;;;;;;8.18;4.32;;;12.60;99.90;;;;;;12470026;28;20048;-37
2023/05/02 00:23:21;;;;;;;7.07;4.13;;;12.50;99.90;;;;;;12485174;28;20038;-36
2023/05/02 00:29:23;;;;;;;8.18;4.90;;;12.40;99.90;;;;;;12485734;28;20481;-36
2023/05/02 00:35:24;;;;;;;7.40;4.10;;;12.40;99.90;;;;;;12478631;28;20053;-37
2023/05/02 00:41:26;;;;;;;8.00;5.13;;;12.50;99.90;;;;;;12503034;28;20106;-37
2023/05/02 00:47:29;;;;;;;9.05;5.40;;;12.50;99.90;;;;;;12505759;28;20455;-37
2023/05/02 00:53:31;;;;;;;8.50;4.65;;;12.40;99.90;;;;;;12476024;28;20111;-37
2023/05/02 00:59:36;;;;;;;12.68;7.78;;;12.10;99.90;;;;;;12471532;28;20401;-36
2023/05/02 01:06:09;;;;;;;12.77;7.18;;;11.60;99.90;;;;;;12455442;28;20057;-36
2023/05/02 01:12:32;;;;;;;16.88;10.20;;;11.50;99.90;;;;;;12481166;28;20045;-37
2023/05/02 01:18:36;;;;;;;20.38;13.23;;;11.50;99.90;;;;;;12446218;28;20041;-37
2023/05/02 01:24:53;;;;;;;20.67;15.07;;;11.50;99.90;;;;;;12467527;28;20102;-37
2023/05/02 01:30:56;;;;;;;23.08;16.23;;;11.40;99.90;;;;;;12478129;28;20546;-37
2023/05/02 01:37:00;;;;;;;24.60;15.95;;;11.30;99.90;;;;;;12485100;28;20049;-37
2023/05/02 01:43:06;;;;;;;27.48;17.88;;;11.30;99.90;;;;;;12480804;28;20063;-37
2023/05/02 01:49:08;;;;;;;27.23;18.45;;;11.40;99.90;;;;;;12450508;28;20045;-37
2023/05/02 01:55:14;;;;;;;27.02;18.33;;;11.40;99.90;;;;;;12485273;28;20071;-37
2023/05/02 02:01:17;;;;;;;28.73;18.73;;;11.50;99.90;;;;;;12480104;28;20191;-37
2023/05/02 02:07:19;;;;;;;30.42;18.92;;;11.40;99.90;;;;;;12474335;28;20054;-37
2023/05/02 02:13:33;;;;;;;29.35;20.48;;;11.40;99.90;;;;;;12467647;28;20045;-37
2023/05/02 02:19:36;;;;;;;26.65;19.45;;;11.40;99.90;;;;;;12483119;28;20152;-37
2023/05/02 02:25:38;;;;;;;26.63;17.63;;;11.30;99.90;;;;;;12477475;28;20410;-36
2023/05/02 02:31:40;;;;;;;21.10;14.80;;;11.20;99.90;;;;;;12443211;28;21886;-37
2023/05/02 02:38:01;;;;;;;23.10;15.15;;;11.20;99.90;;;;;;12464872;28;20057;-37
2023/05/02 02:44:16;;;;;;;21.08;14.63;;;11.10;99.90;;;;;;12483137;28;20497;-37
2023/05/02 02:50:41;;;;;;;26.73;15.50;;;11.00;99.90;;;;;;12474054;28;20045;-36
2023/05/02 02:56:47;;;;;;;25.15;14.95;;;11.00;99.90;;;;;;12463894;28;20046;-37
2023/05/02 03:02:52;;;;;;;23.80;14.50;;;11.00;99.90;;;;;;12456037;28;20045;-37
2023/05/02 03:08:53;;;;;;;;;;;11.00;99.90;;;;;;12478256;28;20056;-37
2023/05/02 03:15:25;;;;;;;24.92;14.23;;;11.10;99.90;;;;;;12451855;28;20419;-37
2023/05/02 03:21:28;;;;;;;26.88;14.65;;;11.00;99.90;;;;;;12442132;28;20404;-37
2023/05/02 03:27:30;;;;;;;21.58;13.70;;;10.90;99.90;;;;;;12488846;28;20470;-37
2023/05/02 03:33:32;;;;;;;21.20;13.82;;;10.90;99.90;;;;;;12497444;28;20046;-37
2023/05/02 03:39:34;;;;;;;24.70;14.45;;;10.90;99.90;;;;;;12474289;28;20396;-37
2023/05/02 03:45:36;;;;;;;25.77;14.38;;;10.80;99.90;;;;;;12465329;28;20103;-37
2023/05/02 03:51:38;;;;;;;24.40;14.23;;;10.90;99.90;;;;;;12481043;28;20123;-37
2023/05/02 03:57:39;;;;;;;24.67;14.05;;;10.90;99.90;;;;;;12483338;28;20045;-37
2023/05/02 04:03:42;;;;;;;27.58;14.85;;;11.00;99.90;;;;;;12484082;28;20037;-37
2023/05/02 04:09:44;;;;;;;28.27;15.35;;;10.80;99.90;;;;;;12483584;28;20098;-37
2023/05/02 04:15:46;;;;;;;24.52;15.27;;;10.80;99.90;;;;;;12478291;28;20044;-36
2023/05/02 04:21:48;;;;;;;24.90;14.80;;;10.70;99.90;;;;;;12476117;28;20091;-37
2023/05/02 04:27:50;;;;;;;24.40;14.57;;;10.80;99.90;;;;;;12488556;28;20132;-37
2023/05/02 04:33:52;;;;;;;19.50;12.27;;;10.80;99.90;;;;;;12472650;28;20045;-37
2023/05/02 04:39:53;;;;;;;19.63;12.65;;;10.90;99.90;;;;;;12475945;28;20053;-37
2023/05/02 04:45:57;;;;;;;22.08;13.00;;;10.80;99.90;;;;;;12486214;28;20508;-38
2023/05/02 04:51:59;;;;;;;24.47;13.83;;;10.80;99.90;;;;;;12484351;28;20052;-36
2023/05/02 04:58:01;;;;;;;27.17;14.70;;;10.70;99.90;;;;;;12462952;28;20084;-37
2023/05/02 05:04:03;;;;;;;20.13;11.25;;;10.70;99.90;;;;;;12495986;28;20049;-36
2023/05/02 05:10:05;;;;;;;17.25;8.40;;;10.70;99.90;;;;;;12485898;28;20041;-37
2023/05/02 05:16:07;;;;;;;11.15;6.65;;;10.60;99.90;;;;;;12460742;28;20498;-37
2023/05/02 05:22:09;;;;;;;10.77;5.72;;;10.70;99.90;;;;;;12466769;28;20069;-37
2023/05/02 05:28:11;;;;;;;5.50;2.47;;;10.70;99.90;;;;;;12473463;28;20037;-37
2023/05/02 05:34:13;;;;;;;6.55;2.83;;;10.00;99.90;;;;;;12477637;28;20075;-36
2023/05/02 05:40:16;;;;;;;6.75;2.97;;;9.70;99.90;;;;;;12483397;28;20045;-36
2023/05/02 05:46:18;;;;;;;7.43;3.40;;;9.30;99.90;;;;;;12486936;28;20049;-36
2023/05/02 05:52:20;;;;;;;9.48;3.92;;;9.10;99.90;;;;;;12484526;28;20060;-35
2023/05/02 05:58:22;;;;;;;11.30;4.15;;;9.00;99.90;;;;;;12476146;28;20049;-37
2023/05/02 06:04:24;;;;;;;11.18;3.40;;;8.90;99.90;;;;;;12463012;28;20127;-37
2023/05/02 06:10:26;;;;;;;11.75;4.13;;;8.90;99.90;;;;;;12491056;28;20103;-36
2023/05/02 06:16:27;;;;;;;11.55;3.63;;;8.80;99.90;;;;;;12494881;28;20049;-37
2023/05/02 06:22:29;;;;;;;12.55;3.50;;;8.80;99.90;;;;;;12494481;28;20041;-36
2023/05/02 06:28:31;;;;;;;11.68;3.50;;;8.80;99.90;;;;;;12474455;28;20050;-36
2023/05/02 06:34:33;;;;;;;10.43;3.30;;;9.10;99.90;;;;;;12478890;28;20045;-37
2023/05/02 06:40:36;;;;;;;11.55;3.70;;;9.20;99.90;;;;;;12450347;28;20049;-36
2023/05/02 06:46:38;;;;;;;11.90;3.92;;;9.20;99.90;;;;;;12478009;28;20061;-37
2023/05/02 06:52:39;;;;;;;11.70;4.65;;;9.30;99.90;;;;;;12491898;28;20118;-36
2023/05/02 06:58:41;;;;;;;12.80;4.07;;;9.30;99.90;;;;;;12478865;28;20068;-36
2023/05/02 07:04:43;;;;;;;17.05;4.00;;;9.40;99.90;;;;;;12475980;28;20056;-36
2023/05/02 07:10:45;;;;;;;8.88;3.65;;;9.10;99.90;;;;;;12488472;28;20083;-37
2023/05/02 07:16:47;;;;;;;11.90;3.80;;;9.20;99.90;;;;;;12473095;28;20045;-36
2023/05/02 07:22:49;;;;;;;17.02;3.47;;;9.30;99.90;;;;;;12477594;28;20041;-37
2023/05/02 07:28:51;;;;;;;18.95;4.03;;;9.20;99.90;;;;;;12470911;28;20099;-36
2023/05/02 07:34:53;;;;;;;16.85;3.78;;;8.90;99.90;;;;;;12472879;28;20049;-36
2023/05/02 07:40:59;;;;;;;24.38;4.13;;;9.10;99.90;;;;;;12481986;28;20102;-37
2023/05/02 07:47:01;;;;;;;13.57;3.83;;;9.20;99.90;;;;;;12499579;28;20099;-37
2023/05/02 07:53:03;;;;;;;15.15;4.35;;;9.30;99.90;;;;;;12498195;28;20443;-36
2023/05/02 07:59:05;;;;;;;11.93;3.38;;;9.30;99.90;;;;;;12505621;28;20047;-35
2023/05/02 08:05:07;;;;;;;17.13;4.00;;;9.00;99.90;;;;;;12475987;28;20060;-35
2023/05/02 08:11:09;;;;;;;14.80;4.38;;;9.20;99.90;;;;;;12485785;28;20537;-36
2023/05/02 08:17:11;;;;;;;16.73;4.53;;;9.10;99.90;;;;;;12470730;28;20452;-36
2023/05/02 08:23:13;;;;;;;15.27;4.20;;;9.00;99.90;;;;;;12474183;28;20401;-36
2023/05/02 08:29:15;;;;;;;17.17;4.57;;;9.00;99.90;;;;;;12494387;28;20087;-35
2023/05/02 08:35:16;;;;;;;14.13;4.18;;;9.00;99.90;;;;;;12493778;28;20045;-35
2023/05/02 08:41:19;;;;;;;11.35;4.30;;;9.10;99.90;;;;;;12504830;28;20417;-35
2023/05/02 08:47:23;;;;;;;8.77;3.47;;;9.10;99.90;;;;;;12498333;28;20049;-37
2023/05/02 08:53:27;;;;;;;10.48;3.50;;;9.10;99.90;;;;;;12479106;28;20180;-37
2023/05/02 08:59:29;;;;;;;10.60;3.17;;;9.00;99.90;;;;;;12497180;28;20102;-35
2023/05/02 09:05:39;;;;;;;8.57;2.83;;;9.10;99.90;;;;;;12482451;28;20148;-36
2023/05/02 09:11:45;;;;;;;6.25;2.22;;;9.30;99.90;;;;;;12501483;28;20137;-36
2023/05/02 09:17:48;;;;;;;9.30;2.25;;;9.70;99.90;;;;;;12477404;28;20087;-36
2023/05/02 09:24:00;;;;;;;8.43;2.17;;;9.70;99.90;;;;;;12500506;28;20049;-36
2023/05/02 09:30:19;;;;;;;7.07;2.00;;;9.80;99.90;;;;;;12484793;28;20045;-36
2023/05/02 09:36:21;;;;;;;10.07;3.17;;;9.50;99.90;;;;;;12479260;28;20174;-36
2023/05/02 09:42:31;;;;;;;11.70;3.78;;;9.30;99.90;;;;;;12488186;28;20045;-36
2023/05/02 09:48:54;;;;;;;16.17;4.20;;;9.20;99.90;;;;;;12491924;28;20128;-36
2023/05/02 09:54:56;;;;;;;14.90;3.65;;;9.20;99.90;;;;;;12465535;28;20092;-36
2023/05/02 10:00:59;;;;;;;15.40;2.65;;;9.20;99.90;;;;;;12489888;28;20048;-36
2023/05/02 10:07:02;;;;;;;11.82;5.05;;;9.20;99.90;;;;;;12483766;28;20057;-36
2023/05/02 10:13:07;;;;;;;14.57;3.67;;;9.10;99.90;;;;;;12490568;28;20461;-36
2023/05/02 10:19:12;;;;;;;10.52;2.80;;;9.40;99.90;;;;;;12474349;28;20053;-36
2023/05/02 10:25:14;;;;;;;;;;;9.40;99.90;;;;;;12488251;28;20091;-35
2023/05/02 10:31:17;;;;;;;11.15;3.00;;;9.70;99.90;;;;;;12477100;28;20040;-35
2023/05/02 10:37:19;;;;;;;10.80;2.92;;;10.00;99.90;;;;;;12495542;28;20451;-37
2023/05/02 10:43:23;;;;;;;10.82;2.83;;;10.40;99.90;;;;;;12498751;28;20132;-36
2023/05/02 10:49:26;;;;;;;8.52;2.20;;;10.60;99.90;;;;;;12459483;28;20053;-36
2023/05/02 10:55:28;;;;;;;6.55;2.70;;;10.50;99.90;;;;;;12472914;28;20072;-36
2023/05/02 11:01:36;;;;;;;6.85;2.05;;;10.30;99.90;;;;;;12476961;28;20103;-36
2023/05/02 11:07:38;;;;;;;9.95;2.50;;;9.90;99.90;;;;;;12483929;28;20060;-36
2023/05/02 11:13:49;;;;;;;6.82;2.33;;;10.20;99.90;;;;;;12450190;28;20057;-36
2023/05/02 11:19:54;;;;;;;28.58;10.75;;;10.60;99.90;;;;;;12473905;28;20064;-37
2023/05/02 11:25:59;;;;;;;7.53;2.20;;;10.90;99.90;;;;;;12454838;28;20068;-36
2023/05/02 11:32:02;;;;;;;5.57;1.52;;;11.20;99.90;;;;;;12445824;28;20037;-36
2023/05/02 11:38:10;;;;;;;5.50;1.70;;;11.40;99.90;;;;;;12466210;28;20103;-36
2023/05/02 11:44:12;;;;;;;6.70;1.70;;;11.00;99.90;;;;;;12449608;28;20049;-37
2023/05/02 11:50:15;;;;;;;8.55;2.30;;;11.10;99.90;;;;;;12475403;28;20057;-36
2023/05/02 11:56:23;;;;;;;6.32;2.15;;;11.20;99.90;;;;;;12486902;28;20490;-37
2023/05/02 12:02:39;;;;;;;5.25;2.00;;;11.50;99.90;;;;;;12480444;28;20076;-37
2023/05/02 12:08:43;;;;;;;12.15;2.60;;;12.20;99.90;;;;;;12466980;28;20069;-37
2023/05/02 12:14:45;;;;;;;10.10;2.88;;;12.40;99.90;;;;;;12473470;28;20104;-37
2023/05/02 12:20:47;;;;;;;7.55;2.40;;;12.00;99.90;;;;;;12490571;28;20048;-37
2023/05/02 12:26:49;;;;;;;10.30;3.13;;;11.90;99.90;;;;;;12482172;28;20046;-37
2023/05/02 12:33:03;;;;;;;9.73;2.75;;;11.90;99.90;;;;;;12490299;28;20056;-37
2023/05/02 12:39:05;;;;;;;11.38;2.70;;;12.00;99.90;;;;;;12487194;28;20060;-38
2023/05/02 12:45:17;;;;;;;10.02;2.78;;;12.10;99.90;;;;;;12488307;28;20040;-37
2023/05/02 12:51:23;;;;;;;7.25;2.55;;;11.60;99.90;;;;;;12447928;28;20088;-37
2023/05/02 12:57:25;;;;;;;5.57;2.78;;;11.60;99.90;;;;;;12491153;28;20053;-37
2023/05/02 13:03:28;;;;;;;7.43;2.70;;;12.10;99.90;;;;;;12487251;28;20139;-37
2023/05/02 13:09:30;;;;;;;10.35;2.70;;;12.20;99.90;;;;;;12486795;28;20053;-37
2023/05/02 13:15:32;;;;;;;10.30;2.70;;;12.10;99.90;;;;;;12475514;28;20563;-37
2023/05/02 13:21:34;;;;;;;10.88;2.83;;;12.00;99.90;;;;;;12480672;28;20080;-37
2023/05/02 13:27:36;;;;;;;11.88;2.60;;;11.70;99.90;;;;;;12492820;28;20120;-37
2023/05/02 13:33:38;;;;;;;7.95;2.58;;;11.90;99.90;;;;;;12489170;28;20425;-37
2023/05/02 13:39:40;;;;;;;5.28;2.65;;;12.00;99.90;;;;;;12488644;28;20057;-37
2023/05/02 13:45:41;;;;;;;9.77;3.35;;;11.70;99.90;;;;;;12470919;28;20041;-37
2023/05/02 13:51:43;;;;;;;14.18;3.17;;;11.70;99.90;;;;;;12470105;28;21146;-37
2023/05/02 13:57:45;;;;;;;10.07;2.58;;;11.70;99.90;;;;;;12495360;28;20053;-37
2023/05/02 14:03:47;;;;;;;9.63;2.65;;;11.30;99.90;;;;;;12491787;28;20101;-37
2023/05/02 14:09:49;;;;;;;8.75;2.92;;;11.10;99.90;;;;;;12492792;28;20081;-37
2023/05/02 14:15:52;;;;;;;5.25;2.45;;;10.70;99.90;;;;;;12478313;28;20440;-36
2023/05/02 14:21:54;;;;;;;9.55;2.45;;;10.40;99.90;;;;;;12474567;28;20077;-37
2023/05/02 14:27:56;;;;;;;8.18;2.65;;;10.90;99.90;;;;;;12484562;28;20103;-37
2023/05/02 14:33:58;;;;;;;6.97;2.35;;;11.20;99.90;;;;;;12489545;28;20440;-36
2023/05/02 14:40:00;;;;;;;7.15;2.33;;;11.00;99.90;;;;;;12476041;28;20485;-37
2023/05/02 14:46:02;;;;;;;7.20;2.50;;;11.00;99.90;;;;;;12482740;28;20053;-38
2023/05/02 14:52:04;;;;;;;9.10;3.30;;;10.70;99.90;;;;;;12473979;28;20041;-37
2023/05/02 14:58:07;;;;;;;9.23;3.15;;;10.90;99.90;;;;;;12454467;28;20056;-37
2023/05/02 15:04:09;;;;;;;8.05;2.90;;;10.80;99.90;;;;;;12486916;28;20180;-37
2023/05/02 15:10:13;;;;;;;7.38;3.00;;;10.80;99.90;;;;;;12480257;28;20048;-37
2023/05/02 15:16:15;;;;;;;8.23;2.67;;;10.70;99.90;;;;;;12477589;28;20056;-37
2023/05/02 15:22:17;;;;;;;6.85;2.33;;;10.90;99.90;;;;;;12475859;28;20097;-36
2023/05/02 15:28:18;;;;;;;7.45;2.30;;;11.00;99.90;;;;;;12486580;28;20132;-37
2023/05/02 15:34:20;;;;;;;8.77;2.30;;;11.10;99.90;;;;;;12506552;28;20390;-36
2023/05/02 15:40:24;;;;;;;4.18;2.22;;;10.80;99.90;;;;;;12491702;28;20056;-36
2023/05/02 15:46:26;;;;;;;7.15;2.40;;;10.70;99.90;;;;;;12492347;28;20045;-36
2023/05/02 15:52:28;;;;;;;8.10;2.70;;;10.40;99.90;;;;;;12463628;28;20136;-36
2023/05/02 15:58:30;;;;;;;7.55;2.15;;;10.50;99.90;;;;;;12492360;28;20528;-37
2023/05/02 16:04:33;;;;;;;3.70;1.58;;;10.60;99.90;;;;;;12492749;28;20049;-36
2023/05/02 16:10:37;;;;;;;7.57;2.05;;;10.70;99.90;;;;;;12512722;28;20056;-37
2023/05/02 16:16:39;;;;;;;5.93;1.67;;;10.60;99.90;;;;;;12482470;28;20398;-37
2023/05/02 16:22:47;;;;;;;3.75;1.92;;;10.80;99.90;;;;;;12516192;28;20131;-36
2023/05/02 16:28:49;;;;;;;3.90;1.40;;;10.60;99.90;;;;;;12478113;28;20417;-37
2023/05/02 16:34:51;;;;;;;5.88;1.48;;;10.60;99.90;;;;;;12515716;28;20044;-36
2023/05/02 16:40:53;;;;;;;3.45;1.20;;;10.50;99.90;;;;;;12489096;28;20054;-36
2023/05/02 16:46:54;;;;;;;4.68;1.40;;;10.40;99.90;;;;;;12484153;28;20144;-36
2023/05/02 16:52:56;;;;;;;5.43;1.40;;;10.30;99.90;;;;;;12462348;28;20053;-36
2023/05/02 16:58:59;;;;;;;4.53;1.20;;;10.30;99.90;;;;;;12492825;28;20041;-36
2023/05/02 17:05:02;;;;;;;7.70;1.47;;;10.20;99.90;;;;;;12502191;28;20390;-36
2023/05/02 17:11:05;;;;;;;4.07;1.40;;;10.20;99.90;;;;;;12481100;28;20049;-36
2023/05/02 17:17:08;;;;;;;9.67;2.47;;;10.20;99.90;;;;;;12469285;28;20493;-36
2023/05/02 17:23:10;;;;;;;5.05;1.45;;;10.00;99.90;;;;;;12498716;28;20136;-36
2023/05/02 17:29:12;;;;;;;4.70;1.20;;;9.90;99.90;;;;;;12480247;28;20049;-36
2023/05/02 17:35:15;;;;;;;3.97;1.25;;;9.90;99.90;;;;;;12493752;28;20494;-36
2023/05/02 17:41:17;;;;;;;5.07;1.35;;;9.80;99.90;;;;;;12499705;28;20577;-36
2023/05/02 17:47:18;;;;;;;4.30;1.40;;;9.90;99.90;;;;;;12481487;28;20041;-37
2023/05/02 17:53:21;;;;;;;4.53;1.80;;;9.80;99.90;;;;;;12483882;28;20502;-37
2023/05/02 17:59:23;;;;;;;6.90;1.60;;;9.80;99.90;;;;;;12476576;28;20090;-36
2023/05/02 18:05:25;;;;;;;3.55;1.27;;;9.80;99.90;;;;;;12486351;28;20104;-37
2023/05/02 18:11:27;;;;;;;5.43;1.50;;;9.70;99.90;;;;;;12477598;28;20081;-37
2023/05/02 18:17:32;;;;;;;5.78;1.83;;;9.60;99.90;;;;;;12462505;28;20041;-36
2023/05/02 18:23:34;;;;;;;4.07;1.50;;;9.60;99.90;;;;;;12476813;28;20061;-37
2023/05/02 18:29:36;;;;;;;5.43;1.60;;;9.50;99.90;;;;;;12486581;28;20132;-36
2023/05/02 18:35:43;;;;;;;5.25;1.52;;;9.60;99.90;;;;;;12486869;28;20412;-37
2023/05/02 18:41:45;;;;;;;5.85;1.80;;;9.60;99.90;;;;;;12478915;28;20274;-37
2023/05/02 18:47:48;;;;;;;4.63;1.60;;;9.50;99.90;;;;;;12490408;28;20045;-37
2023/05/02 18:53:50;;;;;;;4.80;1.52;;;9.40;99.90;;;;;;12495317;28;20445;-37
2023/05/02 18:59:52;;;;;;;10.23;1.40;;;9.40;99.90;;;;;;12493974;28;20124;-37
2023/05/02 19:05:55;;;;;;;7.20;1.42;;;9.40;99.90;;;;;;12482504;28;20497;-37
2023/05/02 19:11:57;;;;;;;4.78;1.50;;;9.40;99.90;;;;;;12486145;28;20041;-37
2023/05/02 19:17:59;;;;;;;4.40;1.50;;;9.30;99.90;;;;;;12490297;28;20041;-37
2023/05/02 19:24:01;;;;;;;4.43;1.33;;;9.20;99.90;;;;;;12496639;28;20049;-36
2023/05/02 19:30:04;;;;;;;4.70;1.30;;;9.30;99.90;;;;;;12492703;28;20049;-37
2023/05/02 19:36:06;;;;;;;4.68;1.50;;;9.10;99.90;;;;;;12486157;28;20099;-37
2023/05/02 19:42:08;;;;;;;8.05;1.33;;;9.10;99.90;;;;;;12492073;28;20497;-37
2023/05/02 19:48:10;;;;;;;4.32;1.40;;;9.00;99.90;;;;;;12507010;28;20053;-37
2023/05/02 19:54:14;;;;;;;3.30;1.13;;;9.10;99.90;;;;;;12503422;28;20095;-37
2023/05/02 20:00:16;;;;;;;4.05;1.33;;;9.00;99.90;;;;;;12485202;28;20045;-37
2023/05/02 20:06:18;;;;;;;4.63;1.27;;;9.00;99.90;;;;;;12492572;28;20045;-37
2023/05/02 20:12:20;;;;;;;4.95;1.58;;;9.00;99.90;;;;;;12494413;28;20053;-37
2023/05/02 20:18:21;;;;;;;3.85;1.17;;;8.90;99.90;;;;;;12486086;28;20128;-37
2023/05/02 20:24:23;;;;;;;5.82;1.25;;;9.00;99.90;;;;;;12464672;28;20525;-37
2023/05/02 20:30:25;;;;;;;4.50;1.33;;;8.90;99.90;;;;;;12496612;28;20285;-37
2023/05/02 20:36:28;;;;;;;3.60;1.42;;;8.80;99.90;;;;;;12490723;28;20144;-37
2023/05/02 20:42:29;;;;;;;7.05;1.60;;;8.80;99.90;;;;;;12493500;28;20586;-37
2023/05/02 20:48:32;;;;;;;6.65;1.50;;;8.80;99.90;;;;;;12466099;28;20053;-37
2023/05/02 20:54:33;;;;;;;2.00;1.00;;;8.70;99.90;;;;;;12498076;28;20072;-37
2023/05/02 21:00:35;;;;;;;5.88;1.15;;;8.80;99.90;;;;;;12491793;28;20060;-37
2023/05/02 21:06:37;;;;;;;5.93;1.65;;;8.70;99.90;;;;;;12494510;28;20058;-37
2023/05/02 21:12:39;;;;;;;6.00;1.40;;;8.50;99.90;;;;;;12497633;28;20084;-37
2023/05/02 21:18:41;;;;;;;5.90;1.65;;;8.50;99.90;;;;;;12447456;28;20095;-36
2023/05/02 21:24:46;;;;;;;5.80;1.60;;;8.50;99.90;;;;;;12482181;28;20498;-37
2023/05/02 21:30:48;;;;;;;5.53;1.20;;;8.50;99.90;;;;;;12451431;28;20052;-37
2023/05/02 21:36:50;;;;;;;5.93;1.38;;;8.40;99.90;;;;;;12467658;28;20338;-37
2023/05/02 21:42:52;;;;;;;3.40;1.25;;;8.30;99.90;;;;;;12469084;28;20095;-37
2023/05/02 21:48:54;;;;;;;4.25;1.40;;;8.20;99.90;;;;;;12455759;28;20397;-37
2023/05/02 21:54:56;;;;;;;4.90;1.42;;;8.00;99.90;;;;;;12474217;28;20048;-37
2023/05/02 22:00:59;;;;;;;3.92;1.58;;;8.00;99.90;;;;;;12478116;28;20049;-37
2023/05/02 22:07:01;;;;;;;4.40;1.58;;;8.00;99.90;;;;;;12488456;28;20501;-37
2023/05/02 22:13:04;;;;;;;3.20;1.33;;;7.80;99.90;;;;;;12487437;28;20140;-36
2023/05/02 22:19:06;;;;;;;3.78;1.45;;;7.60;99.90;;;;;;12479664;28;20049;-37
2023/05/02 22:25:08;;;;;;;3.72;1.40;;;7.50;99.90;;;;;;12485444;28;20048;-36
2023/05/02 22:31:10;;;;;;;3.20;1.35;;;7.60;99.90;;;;;;12484271;28;20050;-36
2023/05/02 22:37:12;;;;;;;3.78;1.23;;;7.10;99.90;;;;;;12487263;28;20053;-37
2023/05/02 22:43:16;;;;;;;7.00;1.58;;;7.10;99.90;;;;;;12473951;28;20667;-36
2023/05/02 22:49:18;;;;;;;3.80;1.40;;;7.10;99.90;;;;;;12469897;28;20049;-36
2023/05/02 22:55:20;;;;;;;5.20;1.60;;;7.00;99.90;;;;;;12473719;28;20470;-37
2023/05/02 23:01:22;;;;;;;6.40;1.60;;;7.00;99.90;;;;;;12481351;28;20482;-36
2023/05/02 23:07:24;;;;;;;2.90;1.52;;;7.00;99.90;;;;;;12481350;28;20041;-36
2023/05/02 23:13:26;;;;;;;5.47;1.60;;;6.90;99.90;;;;;;12466825;28;20081;-36
2023/05/02 23:19:28;;;;;;;4.28;1.80;;;6.70;99.90;;;;;;12484983;28;20184;-40
2023/05/02 23:25:30;;;;;;;5.90;1.73;;;6.40;99.90;;;;;;12483329;28;20045;-39
2023/05/02 23:31:32;;;;;;;4.57;1.52;;;6.40;99.90;;;;;;12469333;28;20824;-38
2023/05/02 23:37:34;;;;;;;8.98;1.73;;;6.20;99.90;;;;;;12487634;28;20072;-40
2023/05/02 23:43:36;;;;;;;6.05;1.90;;;5.90;99.90;;;;;;12467292;28;20075;-39
2023/05/02 23:49:38;;;;;;;5.70;1.50;;;6.10;99.90;;;;;;12493884;28;20458;-39
2023/05/02 23:55:40;;;;;;;4.32;1.88;;;5.80;99.90;;;;;;12487351;28;20059;-39
